createdAt,value
2022-09-10T00:01:20.521Z,2.25
2022-09-10T00:03:48.995Z,2.20
2022-09-10T00:06:16.567Z,2.53
2022-09-10T00:08:43.394Z,2.30
2022-09-10T00:11:11.311Z,2.42
2022-09-10T00:13:39.817Z,2.80
2022-09-10T00:16:10.374Z,2.92
2022-09-10T00:18:38.820Z,3.90
2022-09-10T00:21:12.583Z,5.13
2022-09-10T00:23:40.200Z,5.55
2022-09-10T00:26:15.528Z,7.07
2022-09-10T00:28:43.456Z,7.28
2022-09-10T00:31:11.316Z,7.57
2022-09-10T00:33:38.545Z,6.45
2022-09-10T00:36:19.400Z,7.22
2022-09-10T00:38:47.065Z,7.57
2022-09-10T00:41:14.908Z,7.78
2022-09-10T00:44:26.672Z,8.18
2022-09-10T00:46:55.821Z,10.43
2022-09-10T00:49:36.437Z,9.23
2022-09-10T00:52:04.306Z,8.18
2022-09-10T00:54:33.907Z,7.22
2022-09-10T00:57:05.691Z,6.68
2022-09-10T00:59:33.382Z,7.03
2022-09-10T01:02:01.322Z,6.75
2022-09-10T01:04:29.041Z,7.13
2022-09-10T01:06:56.462Z,6.78
2022-09-10T01:09:25.545Z,6.68
2022-09-10T01:12:20.171Z,6.20
2022-09-10T01:15:07.491Z,5.43
2022-09-10T01:17:52.591Z,8.35
2022-09-10T01:20:26.982Z,7.10
2022-09-10T01:23:17.729Z,7.18
2022-09-10T01:26:20.525Z,7.53
2022-09-10T01:29:20.002Z,6.45
2022-09-10T01:32:01.538Z,5.45
2022-09-10T01:34:34.815Z,5.63
2022-09-10T01:37:08.610Z,6.15
2022-09-10T01:39:35.582Z,5.65
2022-09-10T01:42:02.409Z,6.00
2022-09-10T01:44:58.783Z,6.90
2022-09-10T01:47:51.281Z,6.70
2022-09-10T01:50:26.824Z,9.27
2022-09-10T01:53:14.209Z,9.10
2022-09-10T01:55:56.894Z,8.70
2022-09-10T01:58:36.958Z,10.30
2022-09-10T02:01:13.229Z,10.80
2022-09-10T02:03:44.287Z,12.93
2022-09-10T02:06:16.052Z,13.20
2022-09-10T02:08:48.982Z,12.98
2022-09-10T02:11:16.214Z,13.07
2022-09-10T02:13:43.145Z,14.82
2022-09-10T02:16:15.478Z,15.88
2022-09-10T02:18:42.931Z,13.23
2022-09-10T02:21:12.298Z,15.27
2022-09-10T02:23:59.817Z,14.68
2022-09-10T02:26:27.914Z,13.45
2022-09-10T02:28:54.836Z,15.82
2022-09-10T02:31:21.809Z,13.18
2022-09-10T02:33:48.659Z,12.40
2022-09-10T02:36:18.021Z,11.60
2022-09-10T02:38:44.987Z,12.20
2022-09-10T02:41:11.847Z,11.45
2022-09-10T02:43:38.772Z,10.98
2022-09-10T02:46:08.977Z,11.25
2022-09-10T02:48:35.788Z,11.98
2022-09-10T02:51:02.977Z,11.38
2022-09-10T02:53:31.784Z,10.75
2022-09-10T02:55:58.615Z,11.63
2022-09-10T02:58:25.439Z,11.82
2022-09-10T03:00:52.372Z,12.00
2022-09-10T03:03:19.323Z,12.15
2022-09-10T03:05:47.642Z,12.63
2022-09-10T03:08:14.499Z,16.42
2022-09-10T03:11:01.022Z,15.85
2022-09-10T03:13:28.651Z,14.23
2022-09-10T03:15:56.159Z,14.75
2022-09-10T03:18:23.683Z,15.63
2022-09-10T03:20:51.347Z,15.65
2022-09-10T03:23:18.823Z,15.68
2022-09-10T03:25:49.856Z,13.15
2022-09-10T03:28:16.927Z,14.25
2022-09-10T03:30:43.962Z,13.68
2022-09-10T03:33:11.967Z,14.00
2022-09-10T03:35:39.019Z,12.02
2022-09-10T03:38:06.033Z,12.63
2022-09-10T03:40:34.337Z,11.52
2022-09-10T03:43:01.375Z,12.32
2022-09-10T03:45:28.810Z,13.25
2022-09-10T03:47:55.686Z,12.77
2022-09-10T03:50:22.790Z,13.55
2022-09-10T03:52:50.248Z,15.60
2022-09-10T03:55:18.113Z,15.02
2022-09-10T03:57:45.843Z,15.63
2022-09-10T04:00:13.203Z,16.38
2022-09-10T04:02:41.908Z,15.32
2022-09-10T04:05:09.280Z,15.48
2022-09-10T04:07:36.969Z,14.45
2022-09-10T04:10:04.439Z,15.07
2022-09-10T04:12:31.527Z,15.80
2022-09-10T04:14:58.522Z,16.80
2022-09-10T04:17:25.569Z,17.33
2022-09-10T04:19:52.448Z,19.83
2022-09-10T04:22:19.315Z,18.77
2022-09-10T04:24:46.307Z,19.33
2022-09-10T04:27:13.933Z,18.75
2022-09-10T04:29:41.269Z,19.15
2022-09-10T04:32:08.149Z,18.48
2022-09-10T04:34:35.199Z,18.42
2022-09-10T04:37:02.057Z,17.38
2022-09-10T04:39:28.829Z,17.55
2022-09-10T04:41:55.733Z,15.55
2022-09-10T04:44:22.586Z,16.75
2022-09-10T04:46:49.385Z,16.52
2022-09-10T04:49:16.387Z,17.63
2022-09-10T04:51:43.323Z,16.35
2022-09-10T04:54:13.708Z,16.55
2022-09-10T04:56:41.084Z,16.90
2022-09-10T04:59:21.461Z,17.63
2022-09-10T05:01:50.740Z,16.17
2022-09-10T05:04:17.556Z,15.80
2022-09-10T05:06:44.686Z,15.35
2022-09-10T05:09:12.231Z,15.02
2022-09-10T05:11:39.052Z,14.68
2022-09-10T05:14:06.001Z,13.27
2022-09-10T05:16:33.023Z,12.57
2022-09-10T05:18:59.927Z,13.73
2022-09-10T05:21:26.635Z,13.15
2022-09-10T05:23:53.410Z,12.38
2022-09-10T05:26:20.217Z,11.70
2022-09-10T05:28:47.807Z,11.55
2022-09-10T05:31:15.222Z,10.65
2022-09-10T05:33:42.276Z,10.90
2022-09-10T05:36:12.173Z,9.60
2022-09-10T05:41:10.941Z,8.88
2022-09-10T05:43:37.893Z,8.70
2022-09-10T05:46:05.641Z,7.72
2022-09-10T05:48:32.401Z,8.23
2022-09-10T05:50:59.182Z,7.47
2022-09-10T05:53:25.942Z,7.15
2022-09-10T05:56:11.971Z,6.47
2022-09-10T05:58:45.251Z,6.10
2022-09-10T06:01:12.203Z,7.18
2022-09-10T06:03:40.548Z,5.93
2022-09-10T06:06:07.776Z,5.38
2022-09-10T06:08:35.862Z,6.20
2022-09-10T06:11:05.947Z,5.43
2022-09-10T06:13:50.428Z,4.80
2022-09-10T06:16:18.070Z,4.80
2022-09-10T06:18:45.442Z,5.28
2022-09-10T06:21:17.199Z,4.85
2022-09-10T06:23:44.983Z,5.97
2022-09-10T06:26:18.813Z,5.38
2022-09-10T06:28:46.172Z,5.50
2022-09-10T06:31:17.485Z,5.43
2022-09-10T06:33:47.193Z,5.10
2022-09-10T06:36:14.563Z,4.88
2022-09-10T06:38:45.287Z,4.47
2022-09-10T06:41:13.866Z,4.82
2022-09-10T06:43:41.919Z,5.13
2022-09-10T06:46:40.710Z,4.43
2022-09-10T06:49:03.612Z,5.70
2022-09-10T06:53:58.022Z,4.55
2022-09-10T06:56:25.063Z,4.85
2022-09-10T06:58:52.022Z,5.18
2022-09-10T07:01:21.899Z,5.32
2022-09-10T07:06:35.918Z,6.90
2022-09-10T07:09:04.540Z,5.68
2022-09-10T07:11:32.339Z,5.30
2022-09-10T07:14:00.730Z,6.05
2022-09-10T07:16:28.676Z,6.25
2022-09-10T07:18:57.847Z,7.10
2022-09-10T07:21:27.474Z,7.82
2022-09-10T07:23:59.220Z,7.32
2022-09-10T07:26:26.377Z,7.15
2022-09-10T07:28:53.555Z,6.30
2022-09-10T07:31:41.874Z,6.57
2022-09-10T07:34:08.901Z,5.75
2022-09-10T07:36:35.657Z,5.82
2022-09-10T07:39:03.311Z,6.32
2022-09-10T07:41:32.104Z,5.38
2022-09-10T07:43:59.906Z,5.53
2022-09-10T07:46:28.639Z,5.43
2022-09-10T07:48:59.956Z,5.13
2022-09-10T07:51:30.017Z,4.15
2022-09-10T07:53:58.809Z,3.38
2022-09-10T07:56:26.165Z,3.77
2022-09-10T07:58:54.392Z,3.30
2022-09-10T08:01:21.556Z,3.08
2022-09-10T08:03:48.553Z,2.97
2022-09-10T08:06:16.150Z,2.90
2022-09-10T08:08:43.271Z,2.72
2022-09-10T08:11:13.192Z,2.38
2022-09-10T08:13:47.671Z,2.10
2022-09-10T08:16:17.522Z,2.83
2022-09-10T08:18:44.517Z,2.20
2022-09-10T08:21:12.003Z,2.13
2022-09-10T08:23:42.181Z,1.85
2022-09-10T08:26:09.043Z,2.33
2022-09-10T08:28:36.939Z,1.63
2022-09-10T08:31:08.628Z,1.95
2022-09-10T08:33:37.223Z,1.30
2022-09-10T08:36:06.071Z,1.45
2022-09-10T08:38:40.023Z,1.40
2022-09-10T08:41:18.997Z,1.55
2022-09-10T08:43:51.951Z,1.70
2022-09-10T08:46:30.051Z,1.65
2022-09-10T08:49:08.001Z,1.65
2022-09-10T08:51:45.886Z,2.15
2022-09-10T08:54:22.005Z,1.77
2022-09-10T08:56:49.782Z,2.00
2022-09-10T08:59:26.821Z,2.50
2022-09-10T09:02:04.143Z,2.20
2022-09-10T09:04:46.141Z,2.17
2022-09-10T09:07:15.991Z,1.90
2022-09-10T09:09:43.221Z,1.73
2022-09-10T09:12:17.670Z,1.50
2022-09-10T09:15:11.892Z,2.33
2022-09-10T09:18:04.432Z,2.33
2022-09-10T09:20:50.188Z,1.92
2022-09-10T09:23:36.073Z,1.80
2022-09-10T09:26:14.211Z,2.20
2022-09-10T09:28:53.043Z,1.95
2022-09-10T09:31:22.656Z,1.95
2022-09-10T09:33:53.738Z,1.63
2022-09-10T09:36:31.096Z,1.52
2022-09-10T09:38:57.865Z,1.48
2022-09-10T09:41:47.203Z,1.35
2022-09-10T09:46:50.407Z,1.40
2022-09-10T09:49:17.581Z,1.40
2022-09-10T09:51:48.789Z,1.40
2022-09-10T09:57:16.086Z,1.70
2022-09-10T09:59:42.812Z,2.10
2022-09-10T10:02:17.095Z,1.60
2022-09-10T10:05:23.221Z,1.85
2022-09-10T10:07:50.571Z,2.28
2022-09-10T10:10:25.069Z,1.90
2022-09-10T10:12:54.255Z,2.10
2022-09-10T10:15:36.880Z,2.17
2022-09-10T10:18:24.321Z,2.10
2022-09-10T10:21:15.344Z,1.83
2022-09-10T10:23:43.152Z,1.90
2022-09-10T10:26:30.668Z,1.88
2022-09-10T10:29:00.134Z,1.50
2022-09-10T10:31:46.872Z,1.55
2022-09-10T10:34:29.423Z,1.80
2022-09-10T10:37:14.407Z,1.90
2022-09-10T10:40:01.484Z,1.38
2022-09-10T10:42:35.644Z,1.42
2022-09-10T10:45:13.617Z,1.58
2022-09-10T10:47:45.633Z,1.13
2022-09-10T10:50:12.753Z,1.10
2022-09-10T10:53:01.314Z,1.40
2022-09-10T10:55:52.833Z,1.35
2022-09-10T10:58:44.752Z,1.17
2022-09-10T11:01:21.242Z,0.93
2022-09-10T11:03:59.842Z,0.65
2022-09-10T11:06:35.276Z,1.10
2022-09-10T11:09:14.691Z,0.80
2022-09-10T11:14:40.306Z,0.73
2022-09-10T11:17:15.999Z,0.60
2022-09-10T11:20:28.398Z,0.70
2022-09-10T11:23:35.761Z,0.57
2022-09-10T11:26:14.855Z,0.65
2022-09-10T11:29:08.077Z,0.60
2022-09-10T11:31:43.346Z,0.20
2022-09-10T11:34:12.955Z,0.40
2022-09-10T11:39:34.888Z,0.17
2022-09-10T11:42:13.872Z,0.40
2022-09-10T11:44:55.070Z,0.28
2022-09-10T11:47:31.546Z,0.40
2022-09-10T11:50:04.298Z,0.20
2022-09-10T11:52:33.827Z,0.40
2022-09-10T11:57:53.214Z,0.68
2022-09-10T12:00:21.037Z,0.40
2022-09-10T12:02:57.713Z,0.40
2022-09-10T12:05:44.687Z,0.35
2022-09-10T12:08:45.815Z,0.60
2022-09-10T12:11:15.711Z,0.40
2022-09-10T12:13:45.882Z,0.30
2022-09-10T12:16:43.670Z,0.30
2022-09-10T12:19:29.472Z,0.28
2022-09-10T12:22:02.256Z,0.30
2022-09-10T12:24:38.042Z,0.40
2022-09-10T12:27:07.061Z,0.22
2022-09-10T12:29:41.050Z,0.25
2022-09-10T12:32:19.861Z,0.20
2022-09-10T12:34:51.238Z,0.10
2022-09-10T12:37:19.998Z,0.30
2022-09-10T12:39:46.996Z,0.32
2022-09-10T12:42:32.544Z,0.30
2022-09-10T12:44:59.919Z,0.10
2022-09-10T12:47:40.246Z,0.22
2022-09-10T12:50:19.405Z,0.32
2022-09-10T12:53:15.051Z,0.20
2022-09-10T12:56:19.375Z,0.30
2022-09-10T12:58:59.185Z,0.50
2022-09-10T13:01:46.520Z,0.20
2022-09-10T13:04:37.553Z,0.63
2022-09-10T13:07:20.050Z,0.30
2022-09-10T13:09:56.876Z,0.32
2022-09-10T13:12:26.082Z,0.30
2022-09-10T13:14:57.851Z,0.30
2022-09-10T13:17:54.521Z,0.20
2022-09-10T13:20:21.746Z,0.22
2022-09-10T13:22:57.451Z,0.28
2022-09-10T13:25:45.253Z,0.20
2022-09-10T13:28:30.250Z,0.20
2022-09-10T13:31:13.410Z,0.13
2022-09-10T13:33:52.253Z,0.17
2022-09-10T13:36:50.162Z,0.40
2022-09-10T13:39:57.409Z,0.13
2022-09-10T13:43:02.053Z,0.20
2022-09-10T13:45:52.168Z,0.20
2022-09-10T13:48:26.331Z,0.10
2022-09-10T13:51:25.575Z,0.20
2022-09-10T13:56:25.793Z,0.30
2022-09-10T13:58:57.182Z,0.20
2022-09-10T14:01:51.632Z,0.30
2022-09-10T14:04:26.569Z,0.22
2022-09-10T14:07:13.305Z,0.20
2022-09-10T14:09:50.366Z,0.40
2022-09-10T14:12:21.048Z,0.20
2022-09-10T14:14:55.737Z,0.25
2022-09-10T14:17:31.763Z,0.20
2022-09-10T14:20:02.714Z,0.10
2022-09-10T14:22:32.022Z,0.28
2022-09-10T14:25:01.891Z,0.15
2022-09-10T14:27:35.862Z,0.20
2022-09-10T14:30:24.556Z,0.35
2022-09-10T14:32:52.331Z,0.20
2022-09-10T14:35:39.676Z,0.10
2022-09-10T14:38:29.303Z,0.20
2022-09-10T14:41:16.628Z,0.20
2022-09-10T14:43:43.393Z,0.30
2022-09-10T14:46:32.892Z,0.20
2022-09-10T14:48:59.813Z,0.20
2022-09-10T14:51:26.759Z,0.20
2022-09-10T14:53:56.055Z,0.20
2022-09-10T14:56:30.954Z,0.38
2022-09-10T14:59:22.671Z,0.20
2022-09-10T15:01:49.413Z,0.32
2022-09-10T15:04:19.748Z,0.20
2022-09-10T15:06:46.678Z,0.15
2022-09-10T15:09:17.490Z,0.30
2022-09-10T15:15:17.726Z,0.80
2022-09-10T15:20:29.591Z,0.60
2022-09-10T15:48:46.114Z,0.20
2022-09-10T16:08:01.842Z,0.32
2022-09-10T16:10:34.238Z,0.20
2022-09-10T16:13:21.873Z,0.20
2022-09-10T16:16:24.265Z,0.30
2022-09-10T16:18:56.615Z,0.25
2022-09-10T16:21:26.802Z,0.32
2022-09-10T16:23:56.241Z,0.20
2022-09-10T16:26:26.071Z,0.25
2022-09-10T16:31:23.098Z,0.20
2022-09-10T16:33:54.498Z,0.20
2022-09-10T16:36:23.805Z,0.13
2022-09-10T16:38:58.694Z,0.50
2022-09-10T16:41:26.425Z,0.22
2022-09-10T16:43:55.204Z,0.30
2022-09-10T16:46:22.219Z,0.30
2022-09-10T16:48:52.116Z,0.43
2022-09-10T16:53:53.808Z,0.30
2022-09-10T16:56:20.653Z,0.20
2022-09-10T16:58:48.795Z,0.43
2022-09-10T17:01:16.408Z,0.13
2022-09-10T17:03:46.112Z,0.50
2022-09-10T17:06:17.703Z,0.40
2022-09-10T17:08:45.375Z,0.45
2022-09-10T17:11:14.446Z,0.43
2022-09-10T17:13:42.099Z,0.35
2022-09-10T17:16:16.872Z,0.25
2022-09-10T17:18:45.213Z,0.50
2022-09-10T17:21:13.758Z,0.32
2022-09-10T17:23:41.801Z,0.40
2022-09-10T17:26:09.334Z,0.40
2022-09-10T17:28:37.308Z,0.45
2022-09-10T17:31:05.127Z,0.60
2022-09-10T17:33:33.534Z,0.55
2022-09-10T17:36:02.643Z,0.50
2022-09-10T17:38:30.852Z,0.60
2022-09-10T17:41:00.230Z,0.63
2022-09-10T17:43:28.928Z,0.70
2022-09-10T17:45:56.382Z,0.75
2022-09-10T17:48:26.378Z,0.60
2022-09-10T17:50:54.885Z,0.50
2022-09-10T17:53:21.754Z,0.45
2022-09-10T17:55:48.559Z,0.35
2022-09-10T17:58:16.807Z,0.52
2022-09-10T18:00:47.789Z,0.50
2022-09-10T18:03:17.930Z,0.57
2022-09-10T18:05:46.122Z,0.80
2022-09-10T18:08:13.802Z,0.75
2022-09-10T18:10:40.779Z,0.52
2022-09-10T18:13:08.470Z,0.80
2022-09-10T18:15:42.481Z,0.93
2022-09-10T18:18:10.562Z,0.90
2022-09-10T18:20:38.086Z,0.80
2022-09-10T18:23:05.633Z,0.90
2022-09-10T18:26:10.088Z,0.93
2022-09-10T18:28:38.431Z,0.82
2022-09-10T18:31:06.516Z,0.95
2022-09-10T18:33:41.308Z,1.10
2022-09-10T18:36:16.238Z,0.82
2022-09-10T18:38:44.943Z,1.00
2022-09-10T18:41:26.162Z,0.88
2022-09-10T18:43:56.349Z,1.02
2022-09-10T18:46:25.041Z,0.80
2022-09-10T18:48:53.885Z,0.80
2022-09-10T18:51:25.152Z,0.80
2022-09-10T18:53:54.906Z,0.80
2022-09-10T18:58:59.120Z,1.50
2022-09-10T19:01:48.978Z,1.05
2022-09-10T19:04:22.278Z,0.90
2022-09-10T19:06:50.603Z,1.55
2022-09-10T19:09:27.089Z,1.30
2022-09-10T19:11:56.036Z,0.82
2022-09-10T19:14:27.998Z,1.10
2022-09-10T19:16:58.010Z,1.10
2022-09-10T19:19:32.934Z,1.10
2022-09-10T19:22:07.881Z,1.10
2022-09-10T19:27:23.723Z,1.52
2022-09-10T19:29:50.965Z,1.30
2022-09-10T19:32:20.245Z,1.30
2022-09-10T19:34:58.477Z,1.50
2022-09-10T19:37:26.634Z,1.33
2022-09-10T19:39:56.813Z,0.93
2022-09-10T19:42:24.931Z,1.20
2022-09-10T19:44:52.077Z,1.50
2022-09-10T19:47:20.692Z,0.85
2022-09-10T19:49:48.500Z,1.30
2022-09-10T19:52:15.858Z,1.05
2022-09-10T19:54:43.261Z,1.50
2022-09-10T19:57:10.610Z,1.13
2022-09-10T19:59:38.698Z,1.30
2022-09-10T20:02:06.100Z,1.85
2022-09-10T20:04:38.971Z,1.17
2022-09-10T20:07:07.086Z,1.30
2022-09-10T20:09:37.896Z,1.15
2022-09-10T20:12:32.418Z,1.23
2022-09-10T20:14:59.508Z,1.70
2022-09-10T20:17:28.015Z,1.70
2022-09-10T20:19:55.358Z,1.70
2022-09-10T20:22:22.201Z,1.58
2022-09-10T20:24:49.729Z,1.63
2022-09-10T20:27:17.556Z,1.23
2022-09-10T20:29:45.871Z,1.30
2022-09-10T20:32:13.147Z,1.38
2022-09-10T20:34:40.308Z,1.73
2022-09-10T20:37:07.178Z,1.48
2022-09-10T20:39:34.978Z,1.20
2022-09-10T20:42:01.892Z,1.33
2022-09-10T20:44:30.237Z,1.40
2022-09-10T20:46:57.033Z,1.45
2022-09-10T20:49:23.929Z,1.20
2022-09-10T20:51:51.251Z,1.40
2022-09-10T20:54:19.526Z,1.27
2022-09-10T20:56:46.674Z,1.30
2022-09-10T20:59:15.654Z,1.60
2022-09-10T21:01:44.543Z,1.53
2022-09-10T21:04:12.127Z,1.55
2022-09-10T21:06:40.091Z,1.70
2022-09-10T21:09:06.953Z,1.25
2022-09-10T21:11:35.381Z,1.65
2022-09-10T21:14:04.466Z,1.40
2022-09-10T21:16:33.911Z,1.60
2022-09-10T21:19:03.711Z,1.40
2022-09-10T21:21:34.183Z,1.55
2022-09-10T21:24:03.499Z,1.63
2022-09-10T21:26:32.916Z,1.52
2022-09-10T21:29:02.747Z,1.90
2022-09-10T21:31:31.230Z,1.50
2022-09-10T21:34:03.126Z,1.50
2022-09-10T21:36:41.365Z,1.58
2022-09-10T21:39:13.190Z,1.75
2022-09-10T21:41:46.317Z,1.67
2022-09-10T21:44:15.891Z,1.67
2022-09-10T21:46:44.143Z,1.27
2022-09-10T21:49:11.741Z,1.50
2022-09-10T21:51:39.631Z,1.38
2022-09-10T21:54:06.669Z,1.70
2022-09-10T21:56:33.737Z,1.50
2022-09-10T21:59:01.212Z,1.90
2022-09-10T22:01:30.783Z,1.60
2022-09-10T22:04:02.688Z,1.50
2022-09-10T22:06:32.342Z,1.60
2022-09-10T22:09:01.893Z,1.58
2022-09-10T22:11:32.072Z,1.40
2022-09-10T22:14:01.344Z,1.90
2022-09-10T22:16:31.301Z,1.40
2022-09-10T22:21:26.187Z,1.42
2022-09-10T22:23:53.196Z,1.70
2022-09-10T22:26:25.023Z,1.65
2022-09-10T22:28:59.468Z,1.48
2022-09-10T22:31:32.060Z,1.88
2022-09-10T22:34:07.388Z,1.70
2022-09-10T22:36:37.171Z,1.98
2022-09-10T22:39:09.088Z,1.42
2022-09-10T22:41:36.849Z,1.50
2022-09-10T22:44:04.431Z,1.40
2022-09-10T22:46:32.666Z,1.63
2022-09-10T22:49:00.172Z,1.77
2022-09-10T22:51:29.912Z,2.00
2022-09-10T22:53:58.139Z,1.88
2022-09-10T22:56:26.564Z,1.58
2022-09-10T22:58:55.721Z,1.65
2022-09-10T23:03:36.559Z,1.67
2022-09-10T23:06:09.181Z,1.80
2022-09-10T23:08:36.931Z,1.70
2022-09-10T23:11:11.120Z,1.63
2022-09-10T23:13:38.851Z,1.90
2022-09-10T23:16:17.310Z,2.00
2022-09-10T23:18:48.504Z,1.73
2022-09-10T23:21:18.191Z,1.73
2022-09-10T23:23:50.592Z,1.95
2022-09-10T23:26:17.954Z,1.70
2022-09-10T23:28:45.113Z,1.95
2022-09-10T23:31:17.427Z,1.70
2022-09-10T23:33:46.878Z,1.90
2022-09-10T23:36:13.922Z,1.85
2022-09-10T23:38:42.478Z,1.70
2022-09-10T23:41:12.091Z,1.75
2022-09-10T23:43:39.774Z,1.73
2022-09-10T23:46:07.827Z,1.95
2022-09-10T23:48:35.297Z,1.98
2022-09-10T23:51:02.998Z,2.42
2022-09-10T23:53:30.127Z,2.00
2022-09-10T23:55:57.548Z,1.83
2022-09-10T23:58:30.569Z,2.00
